createdAt,value
2018-07-27T00:00:19.093Z,82.64
2018-07-27T00:01:19.038Z,83.41
2018-07-27T00:02:18.948Z,83.41
2018-07-27T00:03:18.874Z,83.51
2018-07-27T00:04:18.804Z,83.03
2018-07-27T00:05:18.736Z,84.09
2018-07-27T00:06:18.664Z,83.41
2018-07-27T00:07:18.616Z,83.31
2018-07-27T00:08:18.520Z,83.51
2018-07-27T00:09:18.449Z,83.61
2018-07-27T00:10:18.390Z,83.41
2018-07-27T00:11:18.311Z,82.64
2018-07-27T00:12:18.237Z,82.73
2018-07-27T00:13:18.167Z,82.35
2018-07-27T00:14:18.112Z,82.54
2018-07-27T00:15:18.025Z,82.15
2018-07-27T00:16:17.954Z,82.64
2018-07-27T00:17:17.918Z,83.41
2018-07-27T00:18:17.816Z,83.51
2018-07-27T00:19:17.744Z,83.31
2018-07-27T00:20:17.671Z,84.28
2018-07-27T00:21:17.604Z,83.03
2018-07-27T00:22:17.529Z,83.31
2018-07-27T00:23:17.459Z,84.09
2018-07-27T00:24:17.389Z,84.63
2018-07-27T00:25:17.317Z,85.49
2018-07-27T00:26:17.245Z,85.78
2018-07-27T00:27:17.176Z,85.69
2018-07-27T00:28:17.104Z,85.69
2018-07-27T00:29:17.045Z,84.72
2018-07-27T00:30:16.966Z,86.07
2018-07-27T00:31:16.914Z,85.88
2018-07-27T00:32:16.830Z,85.49
2018-07-27T00:33:16.751Z,86.07
2018-07-27T00:34:16.718Z,86.94
2018-07-27T00:35:16.610Z,86.94
2018-07-27T00:36:16.540Z,87.13
2018-07-27T00:37:16.468Z,87.71
2018-07-27T00:38:16.397Z,88.20
2018-07-27T00:39:16.338Z,88.01
2018-07-27T00:40:16.252Z,87.33
2018-07-27T00:41:16.188Z,87.43
2018-07-27T00:42:16.111Z,87.43
2018-07-27T00:43:16.089Z,87.62
2018-07-27T00:44:15.970Z,87.33
2018-07-27T00:45:15.899Z,88.20
2018-07-27T00:46:15.851Z,88.29
2018-07-27T00:47:15.758Z,88.20
2018-07-27T00:48:15.695Z,88.78
2018-07-27T00:49:15.616Z,88.68
2018-07-27T00:50:15.542Z,88.87
2018-07-27T00:51:15.472Z,88.93
2018-07-27T00:52:15.403Z,88.59
2018-07-27T00:53:15.357Z,89.03
2018-07-27T00:54:15.263Z,88.93
2018-07-27T00:55:15.192Z,88.64
2018-07-27T00:56:15.122Z,89.79
2018-07-27T00:57:15.047Z,89.70
2018-07-27T00:58:14.982Z,90.19
2018-07-27T00:59:14.926Z,90.47
2018-07-27T01:00:14.845Z,90.28
2018-07-27T01:01:14.761Z,90.19
2018-07-27T01:02:14.691Z,89.61
2018-07-27T01:03:14.621Z,89.70
2018-07-27T01:04:14.548Z,89.22
2018-07-27T01:05:14.476Z,89.12
2018-07-27T01:06:14.410Z,89.12
2018-07-27T01:07:14.337Z,89.89
2018-07-27T01:08:14.281Z,89.99
2018-07-27T01:09:14.196Z,89.41
2018-07-27T01:10:14.120Z,89.61
2018-07-27T01:11:14.048Z,90.57
2018-07-27T01:12:13.979Z,89.79
2018-07-27T01:13:13.909Z,89.51
2018-07-27T01:14:13.834Z,88.64
2018-07-27T01:15:13.768Z,88.69
2018-07-27T01:16:13.720Z,88.31
2018-07-27T01:17:13.625Z,88.40
2018-07-27T01:18:13.550Z,87.82
2018-07-27T01:19:13.476Z,87.92
2018-07-27T01:20:13.408Z,87.48
2018-07-27T01:21:13.342Z,88.15
2018-07-27T01:22:13.264Z,87.73
2018-07-27T01:23:13.191Z,87.92
2018-07-27T01:24:13.124Z,86.96
2018-07-27T01:25:13.062Z,87.29
2018-07-27T01:26:12.985Z,87.15
2018-07-27T01:27:12.925Z,87.24
2018-07-27T01:28:12.837Z,87.24
2018-07-27T01:29:12.773Z,87.63
2018-07-27T01:30:12.695Z,88.31
2018-07-27T01:31:12.622Z,87.53
2018-07-27T01:32:12.552Z,87.05
2018-07-27T01:33:12.483Z,86.86
2018-07-27T01:34:12.411Z,86.08
2018-07-27T01:35:12.342Z,86.28
2018-07-27T01:36:12.267Z,84.83
2018-07-27T01:37:12.200Z,85.12
2018-07-27T01:38:12.136Z,85.12
2018-07-27T01:39:12.049Z,85.22
2018-07-27T01:40:11.982Z,84.93
2018-07-27T01:41:11.909Z,85.99
2018-07-27T01:42:11.842Z,85.50
2018-07-27T01:43:11.763Z,85.22
2018-07-27T01:44:11.692Z,85.02
2018-07-27T01:45:11.622Z,84.93
2018-07-27T01:46:11.549Z,85.70
2018-07-27T01:47:11.480Z,86.52
2018-07-27T01:48:11.408Z,85.89
2018-07-27T01:49:11.341Z,85.99
2018-07-27T01:50:11.266Z,86.08
2018-07-27T01:51:11.194Z,85.41
2018-07-27T01:52:11.122Z,85.99
2018-07-27T01:53:11.050Z,86.76
2018-07-27T01:54:10.979Z,87.92
2018-07-27T01:55:10.911Z,88.21
2018-07-27T01:56:10.833Z,88.31
2018-07-27T01:57:10.773Z,87.82
2018-07-27T01:58:10.696Z,88.31
2018-07-27T01:59:10.632Z,87.44
2018-07-27T02:00:10.549Z,88.02
2018-07-27T02:01:10.477Z,87.82
2018-07-27T02:02:10.404Z,88.98
2018-07-27T02:03:10.342Z,88.89
2018-07-27T02:04:10.269Z,89.42
2018-07-27T02:05:10.193Z,89.61
2018-07-27T02:06:10.123Z,90.09
2018-07-27T02:07:10.052Z,90.19
2018-07-27T02:08:09.976Z,90.19
2018-07-27T02:09:09.905Z,90.19
2018-07-27T02:10:09.835Z,91.25
2018-07-27T02:11:09.763Z,90.96
2018-07-27T02:12:09.695Z,91.06
2018-07-27T02:13:09.704Z,90.77
2018-07-27T02:14:09.549Z,91.25
2018-07-27T02:15:09.493Z,91.16
2018-07-27T02:16:09.407Z,92.12
2018-07-27T02:17:09.335Z,91.06
2018-07-27T02:18:09.260Z,90.96
2018-07-27T02:19:09.190Z,91.64
2018-07-27T02:20:09.129Z,91.64
2018-07-27T02:21:09.044Z,92.17
2018-07-27T02:22:08.973Z,91.93
2018-07-27T02:23:08.903Z,92.08
2018-07-27T02:24:08.832Z,91.78
2018-07-27T02:25:08.768Z,92.85
2018-07-27T02:26:08.710Z,92.46
2018-07-27T02:27:08.627Z,92.94
2018-07-27T02:28:08.545Z,93.23
2018-07-27T02:29:08.472Z,92.27
2018-07-27T02:30:08.396Z,93.43
2018-07-27T02:31:08.333Z,93.33
2018-07-27T02:32:08.254Z,93.52
2018-07-27T02:33:08.184Z,94.20
2018-07-27T02:34:08.113Z,94.20
2018-07-27T02:35:08.039Z,93.52
2018-07-27T02:36:07.968Z,94.29
2018-07-27T02:37:07.898Z,93.81
2018-07-27T02:38:07.857Z,94.10
2018-07-27T02:39:07.753Z,94.78
2018-07-27T02:40:07.792Z,94.29
2018-07-27T02:41:07.617Z,93.81
2018-07-27T02:42:07.536Z,94.68
2018-07-27T02:43:07.470Z,94.87
2018-07-27T02:44:07.394Z,95.45
2018-07-27T02:45:07.326Z,94.82
2018-07-27T02:46:07.244Z,95.11
2018-07-27T02:47:07.179Z,95.40
2018-07-27T02:48:07.101Z,94.92
2018-07-27T02:49:07.032Z,95.40
2018-07-27T02:50:06.973Z,96.27
2018-07-27T02:51:06.888Z,95.45
2018-07-27T02:52:06.813Z,94.82
2018-07-27T02:53:06.745Z,95.21
2018-07-27T02:54:06.669Z,95.11
2018-07-27T02:55:06.607Z,95.69
2018-07-27T02:56:06.526Z,95.59
2018-07-27T02:57:06.453Z,95.40
2018-07-27T02:58:06.380Z,94.82
2018-07-27T02:59:06.310Z,96.08
2018-07-27T03:00:06.235Z,96.03
2018-07-27T03:01:06.166Z,95.31
2018-07-27T03:02:06.091Z,95.69
2018-07-27T03:03:06.018Z,95.02
2018-07-27T03:04:05.948Z,96.08
2018-07-27T03:05:05.874Z,95.79
2018-07-27T03:06:05.814Z,95.89
2018-07-27T03:07:05.731Z,95.59
2018-07-27T03:08:05.656Z,95.98
2018-07-27T03:09:05.585Z,95.98
2018-07-27T03:10:05.518Z,95.79
2018-07-27T03:11:05.443Z,95.69
2018-07-27T03:12:05.368Z,95.89
2018-07-27T03:13:05.297Z,95.98
2018-07-27T03:14:05.222Z,95.31
2018-07-27T03:15:05.153Z,95.21
2018-07-27T03:16:05.084Z,95.11
2018-07-27T03:17:05.008Z,95.79
2018-07-27T03:18:04.940Z,95.98
2018-07-27T03:19:04.878Z,95.69
2018-07-27T03:20:04.794Z,96.17
2018-07-27T03:21:04.729Z,95.89
2018-07-27T03:22:04.647Z,95.98
2018-07-27T03:23:04.580Z,95.74
2018-07-27T03:24:04.507Z,95.64
2018-07-27T03:25:04.440Z,95.55
2018-07-27T03:26:04.357Z,95.84
2018-07-27T03:27:04.282Z,95.64
2018-07-27T03:28:04.217Z,95.55
2018-07-27T03:29:04.141Z,96.03
2018-07-27T03:30:04.066Z,95.94
2018-07-27T03:31:03.998Z,95.98
2018-07-27T03:32:03.926Z,95.74
2018-07-27T03:33:03.852Z,95.74
2018-07-27T03:34:03.789Z,95.74
2018-07-27T03:35:03.705Z,95.45
2018-07-27T03:36:03.648Z,95.16
2018-07-27T03:37:03.559Z,95.84
2018-07-27T03:38:03.516Z,95.21
2018-07-27T03:39:03.413Z,95.74
2018-07-27T03:40:03.344Z,95.79
2018-07-27T03:41:03.269Z,95.45
2018-07-27T03:42:03.200Z,95.74
2018-07-27T03:43:03.124Z,96.03
2018-07-27T03:44:03.051Z,95.74
2018-07-27T03:45:03.026Z,95.74
2018-07-27T03:46:02.911Z,95.64
2018-07-27T03:47:02.852Z,95.64
2018-07-27T03:48:02.779Z,95.59
2018-07-27T03:49:02.690Z,95.59
2018-07-27T03:50:02.617Z,95.59
2018-07-27T03:51:02.561Z,95.79
2018-07-27T03:52:02.485Z,95.79
2018-07-27T03:53:02.403Z,95.21
2018-07-27T03:54:02.327Z,94.92
2018-07-27T03:55:02.254Z,95.79
2018-07-27T03:56:02.203Z,95.31
2018-07-27T03:57:02.116Z,95.50
2018-07-27T03:58:02.038Z,96.17
2018-07-27T03:59:01.975Z,96.17
2018-07-27T04:00:01.896Z,95.98
2018-07-27T04:01:01.823Z,95.98
2018-07-27T04:02:01.747Z,96.27
2018-07-27T04:03:01.679Z,95.69
2018-07-27T04:04:01.604Z,96.08
2018-07-27T04:05:01.535Z,95.98
2018-07-27T04:06:01.456Z,95.69
2018-07-27T04:07:01.386Z,95.59
2018-07-27T04:08:01.311Z,95.98
2018-07-27T04:09:01.242Z,96.27
2018-07-27T04:10:01.184Z,95.98
2018-07-27T04:11:01.093Z,95.89
2018-07-27T04:12:01.027Z,95.79
2018-07-27T04:13:00.952Z,95.50
2018-07-27T04:14:00.880Z,95.21
2018-07-27T04:15:00.862Z,96.08
2018-07-27T04:16:00.734Z,95.21
2018-07-27T04:17:00.664Z,95.98
2018-07-27T04:18:00.605Z,95.40
2018-07-27T04:19:00.516Z,95.11
2018-07-27T04:20:00.445Z,95.21
2018-07-27T04:21:00.376Z,95.21
2018-07-27T04:22:00.315Z,95.31
2018-07-27T04:23:00.228Z,95.02
2018-07-27T04:24:00.160Z,94.82
2018-07-27T04:25:00.090Z,95.40
2018-07-27T04:26:00.033Z,95.31
2018-07-27T04:26:59.958Z,95.02
2018-07-27T04:27:59.867Z,95.21
2018-07-27T04:28:59.797Z,95.26
2018-07-27T04:29:59.725Z,94.63
2018-07-27T04:30:59.651Z,95.64
2018-07-27T04:31:59.579Z,95.21
2018-07-27T04:32:59.507Z,95.02
2018-07-27T04:33:59.433Z,95.16
2018-07-27T04:34:59.366Z,95.31
2018-07-27T04:35:59.291Z,94.54
2018-07-27T04:36:59.220Z,94.96
2018-07-27T04:37:59.147Z,94.82
2018-07-27T04:38:59.077Z,95.06
2018-07-27T04:39:59.001Z,94.96
2018-07-27T04:40:58.929Z,94.96
2018-07-27T04:41:58.857Z,94.78
2018-07-27T04:42:58.818Z,94.48
2018-07-27T04:43:58.718Z,95.16
2018-07-27T04:44:58.643Z,94.73
2018-07-27T04:45:58.571Z,95.45
2018-07-27T04:46:58.497Z,95.16
2018-07-27T04:47:58.427Z,94.96
2018-07-27T04:48:58.351Z,95.54
2018-07-27T04:49:58.280Z,94.78
2018-07-27T04:50:58.207Z,94.96
2018-07-27T04:51:58.136Z,94.48
2018-07-27T04:52:58.069Z,93.91
2018-07-27T04:53:57.992Z,94.20
2018-07-27T04:54:57.919Z,93.52
2018-07-27T04:55:57.848Z,93.33
2018-07-27T04:56:57.777Z,93.52
2018-07-27T04:57:57.703Z,93.96
2018-07-27T04:58:57.652Z,93.91
2018-07-27T04:59:57.559Z,94.29
2018-07-27T05:00:57.487Z,94.92
2018-07-27T05:01:57.425Z,95.21
2018-07-27T05:02:57.343Z,94.29
2018-07-27T05:03:57.271Z,94.10
2018-07-27T05:04:57.200Z,94.48
2018-07-27T05:05:57.137Z,94.96
2018-07-27T05:06:57.071Z,94.87
2018-07-27T05:07:56.984Z,94.39
2018-07-27T05:08:56.912Z,93.62
2018-07-27T05:09:56.841Z,93.43
2018-07-27T05:10:56.771Z,92.94
2018-07-27T05:11:56.773Z,93.52
2018-07-27T05:12:56.622Z,93.04
2018-07-27T05:13:56.567Z,92.27
2018-07-27T05:14:56.480Z,93.23
2018-07-27T05:15:56.410Z,92.17
2018-07-27T05:16:56.335Z,92.46
2018-07-27T05:17:56.261Z,92.27
2018-07-27T05:18:56.207Z,92.27
2018-07-27T05:19:56.119Z,91.98
2018-07-27T05:20:56.046Z,91.78
2018-07-27T05:21:55.976Z,92.17
2018-07-27T05:22:55.901Z,92.46
2018-07-27T05:23:55.840Z,92.36
2018-07-27T05:24:55.757Z,92.85
2018-07-27T05:25:55.689Z,93.04
2018-07-27T05:26:55.641Z,92.94
2018-07-27T05:27:55.543Z,92.94
2018-07-27T05:28:55.470Z,93.52
2018-07-27T05:29:55.398Z,93.52
2018-07-27T05:30:55.325Z,93.33
2018-07-27T05:31:55.255Z,92.94
2018-07-27T05:32:55.182Z,93.04
2018-07-27T05:33:55.110Z,92.46
2018-07-27T05:34:55.038Z,93.28
2018-07-27T05:35:54.973Z,93.95
2018-07-27T05:36:54.898Z,93.37
2018-07-27T05:37:54.822Z,93.57
2018-07-27T05:38:54.751Z,93.47
2018-07-27T05:39:54.700Z,93.37
2018-07-27T05:40:54.610Z,94.05
2018-07-27T05:41:54.538Z,92.80
2018-07-27T05:42:54.464Z,93.18
2018-07-27T05:43:54.392Z,92.41
2018-07-27T05:44:54.321Z,92.12
2018-07-27T05:45:54.249Z,92.41
2018-07-27T05:46:54.246Z,92.02
2018-07-27T05:47:54.108Z,91.97
2018-07-27T05:48:54.032Z,90.91
2018-07-27T05:49:53.962Z,91.11
2018-07-27T05:50:53.888Z,90.53
2018-07-27T05:51:53.820Z,90.33
2018-07-27T05:52:53.748Z,90.14
2018-07-27T05:53:53.677Z,91.11
2018-07-27T05:54:53.609Z,91.20
2018-07-27T05:55:53.532Z,90.53
2018-07-27T05:56:53.485Z,90.43
2018-07-27T05:57:53.391Z,90.43
2018-07-27T05:58:53.319Z,89.65
2018-07-27T05:59:53.246Z,90.72
2018-07-27T06:00:53.175Z,90.05
2018-07-27T06:01:53.101Z,88.89
2018-07-27T06:02:53.056Z,88.98
2018-07-27T06:03:52.961Z,88.50
2018-07-27T06:04:52.941Z,89.70
2018-07-27T06:05:52.830Z,88.50
2018-07-27T06:06:52.743Z,87.67
2018-07-27T06:07:52.677Z,88.15
2018-07-27T06:08:52.605Z,86.71
2018-07-27T06:09:52.555Z,86.71
2018-07-27T06:10:52.459Z,86.32
2018-07-27T06:11:52.390Z,87.58
2018-07-27T06:12:52.317Z,87.48
2018-07-27T06:13:52.268Z,87.96
2018-07-27T06:14:52.179Z,88.54
2018-07-27T06:15:52.104Z,88.73
2018-07-27T06:16:52.044Z,87.19
2018-07-27T06:17:52.012Z,86.61
2018-07-27T06:18:51.890Z,86.65
2018-07-27T06:19:51.820Z,86.61
2018-07-27T06:20:51.822Z,87.71
2018-07-27T06:21:51.676Z,87.52
2018-07-27T06:22:51.619Z,87.23
2018-07-27T06:23:51.641Z,85.30
2018-07-27T06:24:51.463Z,84.05
2018-07-27T06:25:51.394Z,83.75
2018-07-27T06:26:51.322Z,83.75
2018-07-27T06:27:51.252Z,83.37
2018-07-27T06:28:51.184Z,83.08
2018-07-27T06:29:51.165Z,83.27
2018-07-27T06:30:51.076Z,83.47
2018-07-27T06:31:50.977Z,81.92
2018-07-27T06:32:50.899Z,82.02
2018-07-27T06:33:50.826Z,82.11
2018-07-27T06:34:50.755Z,82.11
2018-07-27T06:35:50.684Z,82.21
2018-07-27T06:36:50.616Z,81.63
2018-07-27T06:37:50.544Z,82.31
2018-07-27T06:38:50.471Z,83.37
2018-07-27T06:39:50.401Z,82.60
2018-07-27T06:40:50.330Z,83.37
2018-07-27T06:41:50.258Z,83.95
2018-07-27T06:42:50.193Z,83.47
2018-07-27T06:43:50.119Z,84.72
2018-07-27T06:44:50.049Z,84.86
2018-07-27T06:45:49.976Z,83.12
2018-07-27T06:46:49.907Z,82.64
2018-07-27T06:47:49.836Z,82.15
2018-07-27T06:48:49.766Z,82.06
2018-07-27T06:49:49.695Z,82.06
2018-07-27T06:50:49.623Z,82.15
2018-07-27T06:51:49.552Z,81.87
2018-07-27T06:52:49.482Z,81.48
2018-07-27T06:53:49.411Z,81.48
2018-07-27T06:54:49.339Z,81.09
2018-07-27T06:55:49.279Z,80.90
2018-07-27T06:56:49.203Z,80.12
2018-07-27T06:57:49.129Z,80.61
2018-07-27T06:58:49.058Z,79.64
2018-07-27T06:59:49.006Z,79.35
2018-07-27T07:00:48.916Z,79.16
2018-07-27T07:01:48.848Z,79.45
2018-07-27T07:02:48.775Z,79.45
2018-07-27T07:03:48.706Z,80.03
2018-07-27T07:04:48.642Z,79.97
2018-07-27T07:05:48.565Z,79.64
2018-07-27T07:06:48.495Z,80.07
2018-07-27T07:07:48.426Z,79.25
2018-07-27T07:08:48.353Z,79.64
2018-07-27T07:09:48.281Z,79.87
2018-07-27T07:10:48.210Z,79.87
2018-07-27T07:11:48.155Z,79.49
2018-07-27T07:12:48.073Z,79.20
2018-07-27T07:13:48.753Z,79.49
2018-07-27T07:14:47.933Z,79.39
2018-07-27T07:15:47.886Z,79.10
2018-07-27T07:16:47.789Z,79.39
2018-07-27T07:17:47.719Z,79.00
2018-07-27T07:18:47.648Z,78.23
2018-07-27T07:19:47.579Z,77.07
2018-07-27T07:20:47.511Z,76.97
2018-07-27T07:21:47.456Z,77.65
2018-07-27T07:22:47.365Z,77.94
2018-07-27T07:23:47.296Z,78.23
2018-07-27T07:24:47.246Z,77.11
2018-07-27T07:25:47.238Z,76.82
2018-07-27T07:26:47.083Z,77.11
2018-07-27T07:27:47.014Z,77.69
2018-07-27T07:28:46.942Z,76.91
2018-07-27T07:29:46.875Z,77.11
2018-07-27T07:30:46.804Z,76.82
2018-07-27T07:31:46.735Z,76.04
2018-07-27T07:32:46.665Z,75.07
2018-07-27T07:33:46.593Z,75.07
2018-07-27T07:34:46.531Z,74.79
2018-07-27T07:35:46.452Z,74.82
2018-07-27T07:36:46.391Z,74.63
2018-07-27T07:37:46.310Z,73.95
2018-07-27T07:38:46.242Z,73.66
2018-07-27T07:39:46.195Z,73.75
2018-07-27T07:40:46.103Z,73.75
2018-07-27T07:41:46.030Z,73.37
2018-07-27T07:42:45.961Z,73.08
2018-07-27T07:43:45.912Z,71.82
2018-07-27T07:44:45.824Z,72.34
2018-07-27T07:45:45.751Z,73.18
2018-07-27T07:46:45.681Z,72.15
2018-07-27T07:47:45.611Z,73.02
2018-07-27T07:48:45.541Z,72.83
2018-07-27T07:49:45.472Z,73.02
2018-07-27T07:50:45.405Z,73.50
2018-07-27T07:51:45.349Z,73.60
2018-07-27T07:52:45.264Z,73.60
2018-07-27T07:53:45.195Z,73.21
2018-07-27T07:54:45.124Z,73.31
2018-07-27T07:55:45.054Z,72.34
2018-07-27T07:56:45.000Z,71.95
2018-07-27T07:57:44.958Z,72.05
2018-07-27T07:58:44.932Z,73.11
2018-07-27T07:59:45.785Z,73.64
2018-07-27T08:00:44.727Z,73.15
2018-07-27T08:01:44.695Z,73.15
2018-07-27T08:02:44.651Z,72.09
2018-07-27T08:03:44.551Z,71.60
2018-07-27T08:04:44.503Z,71.70
2018-07-27T08:05:44.423Z,70.34
2018-07-27T08:06:44.295Z,71.41
2018-07-27T08:07:44.224Z,71.70
2018-07-27T08:08:44.153Z,72.38
2018-07-27T08:09:44.083Z,72.38
2018-07-27T08:10:44.014Z,71.99
2018-07-27T08:11:43.943Z,71.31
2018-07-27T08:12:43.872Z,71.60
2018-07-27T08:13:43.819Z,71.54
2018-07-27T08:14:43.734Z,72.31
2018-07-27T08:15:43.671Z,72.12
2018-07-27T08:16:43.600Z,72.51
2018-07-27T08:17:43.537Z,71.54
2018-07-27T08:18:43.468Z,71.54
2018-07-27T08:19:43.388Z,70.37
2018-07-27T08:20:43.324Z,69.41
2018-07-27T08:21:43.252Z,70.57
2018-07-27T08:22:43.184Z,70.57
2018-07-27T08:23:43.114Z,69.89
2018-07-27T08:24:43.046Z,68.24
2018-07-27T08:25:42.974Z,68.37
2018-07-27T08:26:42.923Z,67.21
2018-07-27T08:27:42.837Z,68.37
2018-07-27T08:28:42.765Z,68.37
2018-07-27T08:29:42.698Z,68.57
2018-07-27T08:30:42.629Z,68.08
2018-07-27T08:31:42.569Z,67.60
2018-07-27T08:32:42.496Z,67.60
2018-07-27T08:33:42.423Z,67.50
2018-07-27T08:34:42.352Z,68.18
2018-07-27T08:35:42.283Z,67.50
2018-07-27T08:36:42.215Z,66.82
2018-07-27T08:37:42.150Z,65.66
2018-07-27T08:38:42.092Z,66.56
2018-07-27T08:39:42.076Z,67.31
2018-07-27T08:40:41.939Z,66.56
2018-07-27T08:41:41.870Z,66.66
2018-07-27T08:42:41.802Z,67.24
2018-07-27T08:43:41.731Z,67.44
2018-07-27T08:44:41.663Z,66.37
2018-07-27T08:45:41.593Z,66.56
2018-07-27T08:46:41.525Z,66.27
2018-07-27T08:47:41.459Z,65.50
2018-07-27T08:48:41.389Z,65.89
2018-07-27T08:49:41.341Z,65.59
2018-07-27T08:50:41.263Z,64.92
2018-07-27T08:51:41.182Z,65.20
2018-07-27T08:52:41.114Z,66.56
2018-07-27T08:53:41.048Z,66.56
2018-07-27T08:54:40.976Z,65.14
2018-07-27T08:55:40.906Z,66.21
2018-07-27T08:56:40.839Z,65.24
2018-07-27T08:57:40.785Z,66.50
2018-07-27T08:58:40.701Z,65.24
2018-07-27T08:59:40.636Z,63.49
2018-07-27T09:00:40.565Z,64.26
2018-07-27T09:01:40.496Z,64.26
2018-07-27T09:02:40.455Z,64.95
2018-07-27T09:03:40.357Z,65.05
2018-07-27T09:04:40.290Z,65.53
2018-07-27T09:05:40.233Z,64.07
2018-07-27T09:06:40.151Z,64.36
2018-07-27T09:07:40.088Z,64.49
2018-07-27T09:08:40.019Z,62.13
2018-07-27T09:09:39.948Z,61.29
2018-07-27T09:10:39.878Z,60.61
2018-07-27T09:11:39.812Z,60.12
2018-07-27T09:12:39.746Z,61.19
2018-07-27T09:13:39.672Z,60.90
2018-07-27T09:14:39.609Z,60.71
2018-07-27T09:15:39.534Z,61.09
2018-07-27T09:16:39.464Z,60.51
2018-07-27T09:17:39.400Z,60.61
2018-07-27T09:18:39.331Z,60.12
2018-07-27T09:19:39.262Z,60.22
2018-07-27T09:20:39.202Z,61.80
2018-07-27T09:21:39.182Z,61.61
2018-07-27T09:22:39.056Z,61.02
2018-07-27T09:23:38.985Z,61.41
2018-07-27T09:24:39.047Z,60.25
2018-07-27T09:25:38.849Z,58.31
2018-07-27T09:26:38.786Z,59.28
2018-07-27T09:27:38.713Z,60.44
2018-07-27T09:28:38.649Z,60.44
2018-07-27T09:29:38.579Z,59.21
2018-07-27T09:30:38.512Z,59.50
2018-07-27T09:31:38.443Z,56.77
2018-07-27T09:32:38.375Z,56.97
2018-07-27T09:33:38.303Z,56.39
2018-07-27T09:34:38.237Z,56.59
2018-07-27T09:35:38.171Z,56.77
2018-07-27T09:36:38.109Z,56.97
2018-07-27T09:37:38.033Z,57.56
2018-07-27T09:38:37.978Z,57.46
2018-07-27T09:39:37.895Z,56.87
2018-07-27T09:40:37.905Z,54.74
2018-07-27T09:41:37.759Z,55.03
2018-07-27T09:42:37.692Z,55.13
2018-07-27T09:43:37.624Z,55.51
2018-07-27T09:44:37.560Z,57.75
2018-07-27T09:45:37.486Z,58.33
2018-07-27T09:46:37.547Z,57.36
2018-07-27T09:47:37.356Z,57.17
2018-07-27T09:48:37.283Z,57.95
2018-07-27T09:49:37.216Z,58.17
2018-07-27T09:50:37.149Z,57.00
2018-07-27T09:51:37.138Z,57.68
2018-07-27T09:52:37.010Z,56.61
2018-07-27T09:53:36.949Z,56.71
2018-07-27T09:54:36.881Z,56.51
2018-07-27T09:55:36.814Z,56.71
2018-07-27T09:56:36.739Z,56.61
2018-07-27T09:57:36.674Z,56.45
2018-07-27T09:58:36.603Z,57.00
2018-07-27T09:59:36.535Z,58.00
2018-07-27T10:00:36.469Z,57.90
2018-07-27T10:01:36.398Z,58.20
2018-07-27T10:02:36.670Z,57.32
2018-07-27T10:03:36.263Z,55.57
2018-07-27T10:04:36.196Z,56.05
2018-07-27T10:05:36.141Z,56.84
2018-07-27T10:06:36.058Z,55.18
2018-07-27T10:07:35.992Z,55.96
2018-07-27T10:08:35.925Z,57.22
2018-07-27T10:09:35.859Z,57.90
2018-07-27T10:10:35.789Z,56.09
2018-07-27T10:11:35.720Z,55.27
2018-07-27T10:12:35.659Z,55.96
2018-07-27T10:13:35.590Z,55.01
2018-07-27T10:14:35.521Z,52.67
2018-07-27T10:15:35.453Z,52.19
2018-07-27T10:16:35.393Z,53.45
2018-07-27T10:17:35.313Z,53.26
2018-07-27T10:18:35.355Z,53.75
2018-07-27T10:19:35.184Z,52.77
2018-07-27T10:20:35.112Z,53.06
2018-07-27T10:21:35.054Z,53.26
2018-07-27T10:22:34.976Z,53.55
2018-07-27T10:23:34.911Z,53.85
2018-07-27T10:24:34.845Z,55.11
2018-07-27T10:25:34.773Z,54.62
2018-07-27T10:26:34.716Z,53.26
2018-07-27T10:27:34.640Z,54.43
2018-07-27T10:28:34.573Z,55.11
2018-07-27T10:31:17.172Z,53.97
2018-07-27T10:32:17.036Z,53.77
2018-07-27T10:34:20.899Z,53.58
2018-07-27T10:35:20.831Z,53.77
2018-07-27T10:37:13.692Z,52.89
2018-07-27T10:38:13.577Z,53.19
2018-07-27T10:40:17.472Z,52.50
2018-07-27T10:41:17.357Z,52.31
2018-07-27T10:43:21.213Z,52.40
2018-07-27T10:44:21.143Z,52.40
2018-07-27T10:46:25.052Z,52.99
2018-07-27T10:47:24.931Z,52.80
2018-07-27T10:49:28.794Z,52.63
2018-07-27T10:50:28.720Z,51.85
2018-07-27T10:52:32.627Z,53.50
2018-07-27T10:53:32.507Z,53.80
2018-07-27T10:55:36.417Z,52.66
2018-07-27T10:56:36.300Z,52.26
2018-07-27T10:58:40.176Z,52.26
2018-07-27T10:59:40.089Z,52.26
2018-07-27T11:01:43.989Z,51.48
2018-07-27T11:02:43.879Z,51.31
2018-07-27T11:04:47.787Z,51.70
2018-07-27T11:05:47.660Z,51.51
2018-07-27T11:07:51.561Z,50.34
2018-07-27T11:08:51.491Z,50.24
2018-07-27T11:09:51.473Z,50.73
2018-07-27T11:10:51.311Z,51.80
2018-07-27T11:11:51.248Z,49.56
2018-07-27T11:12:51.184Z,50.04
2018-07-27T11:13:51.113Z,51.02
2018-07-27T11:14:51.043Z,50.14
2018-07-27T11:15:50.979Z,50.53
2018-07-27T11:16:50.913Z,51.92
2018-07-27T11:17:50.879Z,52.39
2018-07-27T11:18:50.782Z,50.43
2018-07-27T11:19:50.716Z,49.98
2018-07-27T11:20:50.668Z,50.16
2018-07-27T11:21:50.582Z,50.73
2018-07-27T11:22:50.515Z,51.02
2018-07-27T11:23:50.466Z,47.53
2018-07-27T11:24:50.385Z,47.92
2018-07-27T11:25:50.332Z,48.41
2018-07-27T11:26:50.253Z,49.29
2018-07-27T11:27:50.252Z,49.49
2018-07-27T11:28:50.121Z,49.90
2018-07-27T11:29:50.056Z,50.88
2018-07-27T11:30:49.987Z,51.46
2018-07-27T11:31:49.933Z,49.61
2018-07-27T11:32:49.855Z,49.63
2018-07-27T11:33:49.791Z,49.24
2018-07-27T11:34:49.726Z,48.46
2018-07-27T11:35:49.659Z,49.73
2018-07-27T11:36:49.594Z,47.99
2018-07-27T11:37:49.528Z,48.36
2018-07-27T11:38:49.462Z,48.77
2018-07-27T11:39:49.402Z,47.99
2018-07-27T11:40:49.329Z,49.85
2018-07-27T11:41:49.266Z,49.24
2018-07-27T11:42:49.199Z,49.04
2018-07-27T11:43:49.134Z,49.26
2018-07-27T11:44:49.071Z,48.36
2018-07-27T11:45:49.002Z,49.24
2018-07-27T11:46:48.937Z,48.16
2018-07-27T11:47:48.874Z,48.65
2018-07-27T11:48:48.807Z,47.75
2018-07-27T11:49:48.743Z,47.95
2018-07-27T11:50:48.678Z,49.00
2018-07-27T11:51:48.613Z,48.41
2018-07-27T11:52:48.583Z,48.51
2018-07-27T11:53:48.481Z,48.39
2018-07-27T11:54:48.413Z,49.07
2018-07-27T11:55:48.346Z,49.46
2018-07-27T11:56:48.281Z,49.95
2018-07-27T11:57:48.235Z,49.85
2018-07-27T11:58:48.149Z,49.56
2018-07-27T11:59:48.095Z,49.24
2018-07-27T12:00:48.017Z,48.95
2018-07-27T12:01:47.951Z,47.78
2018-07-27T12:02:47.888Z,48.34
2018-07-27T12:03:47.819Z,47.66
2018-07-27T12:04:47.783Z,48.63
2018-07-27T12:05:47.688Z,48.14
2018-07-27T12:06:47.620Z,48.14
2018-07-27T12:07:47.575Z,48.14
2018-07-27T12:08:47.485Z,47.66
2018-07-27T12:09:47.420Z,47.95
2018-07-27T12:10:47.354Z,47.85
2018-07-27T12:11:47.286Z,47.46
2018-07-27T12:12:47.225Z,46.76
2018-07-27T12:13:47.202Z,46.76
2018-07-27T12:14:47.214Z,46.86
2018-07-27T12:15:47.035Z,46.86
2018-07-27T12:16:46.955Z,47.63
2018-07-27T12:17:46.887Z,48.80
2018-07-27T12:18:46.830Z,47.73
2018-07-27T12:19:46.755Z,49.58
2018-07-27T12:20:46.802Z,50.85
2018-07-27T12:21:46.838Z,50.46
2018-07-27T12:22:46.554Z,50.56
2018-07-27T12:23:46.485Z,50.56
2018-07-27T12:24:46.420Z,50.85
2018-07-27T12:25:46.352Z,50.75
2018-07-27T12:26:46.292Z,50.95
2018-07-27T12:27:46.220Z,50.75
2018-07-27T12:28:46.154Z,50.56
2018-07-27T12:29:46.087Z,51.14
2018-07-27T12:30:46.019Z,51.26
2018-07-27T12:31:45.954Z,50.87
2018-07-27T12:32:45.960Z,49.80
2018-07-27T12:33:45.874Z,49.41
2018-07-27T12:34:45.754Z,49.12
2018-07-27T12:35:45.761Z,49.32
2018-07-27T12:36:45.630Z,49.80
2018-07-27T12:37:45.590Z,48.83
2018-07-27T12:38:45.486Z,49.51
2018-07-27T12:39:45.421Z,49.51
2018-07-27T12:40:45.353Z,50.48
2018-07-27T12:41:45.323Z,49.51
2018-07-27T12:42:45.289Z,49.63
2018-07-27T12:43:45.164Z,49.73
2018-07-27T12:44:45.099Z,48.66
2018-07-27T12:45:45.023Z,49.24
2018-07-27T12:46:45.014Z,49.05
2018-07-27T12:47:44.887Z,47.88
2018-07-27T12:48:44.870Z,47.80
2018-07-27T12:49:44.777Z,47.78
2018-07-27T12:50:44.713Z,48.00
2018-07-27T12:51:44.632Z,49.05
2018-07-27T12:52:44.565Z,47.71
2018-07-27T12:53:44.494Z,47.80
2018-07-27T12:54:44.424Z,47.90
2018-07-27T12:55:44.360Z,47.41
2018-07-27T12:56:44.341Z,46.53
2018-07-27T12:57:44.224Z,47.44
2018-07-27T12:58:44.164Z,46.58
2018-07-27T12:59:44.096Z,45.23
2018-07-27T13:00:44.032Z,45.33
2018-07-27T13:01:43.971Z,44.74
2018-07-27T13:02:43.898Z,45.53
2018-07-27T13:03:43.834Z,45.92
2018-07-27T13:04:43.766Z,45.92
2018-07-27T13:05:43.704Z,46.89